Aérodrome :







RETROUVEZ-NOUS SUR...

 
LOGIN :

S'inscrire | Disclaimer

   EN    FR    IT 

 









Légende :    VFR   VFR Marginal   IFR   IFR Intensif   IFR Très Intensif
Visi : 
Plafond : 
>= 8 km
>= 3000ft
5 à 8 km
1000 à 3000 ft
1500m à 5 km
500 à 1000 ft
800 à 1500m
200 à 500 ft
< 800m
< 200 ft
Symboles :   Orages  Brouillard  Fortes neiges  Fortes précipitations  Vent > 20 kt






- Altitude de l'aérodrome : 92 ft
- Code IATA : YZX


CYZX - CFB Greenwood

DERNIER METAR :
  • 150100Z 20011G24KT 10SM -RA SCT018 OVC035 17/15 A2936 RMK SC3SC5 SLP945

METARs EXPIRÉS :
  • 150000Z 19020G32KT 15SM -RA SCT028 OVC045 17/15 A2940 RMK SC3SC5 SLP957
  • 142300Z 17017G26KT 6SM -RA SCT028 BKN047 OVC075 15/15 A2943 RMK CF3CF2AC3 PRESFR SLP967

TAF TAF CYZX
Valide du 15 à 00h jusqu'au 16 à 00h UTC


142307Z 1500/1524 17017G27KT 6SM BR SCT015 BKN025 OVC040
TEMPO 1500/1509 3SM -SHRA BR BKN012
FM150900 20020G30KT P6SM BKN020 BKN220
FM151500 23025G40KT P6SM BKN025
TEMPO 1515/1524 P6SM -SHRA
BECMG 1520/1522 26025G40KT RMK NXT FCST BY 150600Z



MET'MAP, la Météo Aéronautique d'un coup d'oeil ! - Copyright ORBIFLY Décembre 2007 - Disclaimer

ORBIFLY MET'MAP TEAM :

Programmation & Développement : Alexandra Zaïnal
Sur une idée originale de : Baudouin d'Aumeries
Assistance à la programmation : Marc-Olivier Méhu
Soutien technique & logistique : Manuel Goepfert

Contact : metmap@orbifly.com




SOURCES & CREDITS :

   NOAA